sensor_id;sensor_type;location;lat;lon;timestamp;pressure;altitude;pressure_sealevel;temperature;humidity
63405;BME280;49541;57.840;12.306;2023-09-19T00:04:56;99006.81;;;19.45;100.00
63405;BME280;49541;57.840;12.306;2023-09-19T00:09:56;98984.41;;;19.56;100.00
63405;BME280;49541;57.840;12.306;2023-09-19T00:14:56;98981.41;;;19.64;100.00
63405;BME280;49541;57.840;12.306;2023-09-19T00:19:57;98970.75;;;19.39;100.00
63405;BME280;49541;57.840;12.306;2023-09-19T00:24:57;98975.25;;;19.15;100.00
63405;BME280;49541;57.840;12.306;2023-09-19T00:29:57;98980.44;;;18.98;100.00
63405;BME280;49541;57.840;12.306;2023-09-19T00:34:57;98971.16;;;18.94;100.00
63405;BME280;49541;57.840;12.306;2023-09-19T00:39:57;98973.06;;;19.06;100.00
63405;BME280;49541;57.840;12.306;2023-09-19T00:44:58;98965.66;;;19.01;100.00
63405;BME280;49541;57.840;12.306;2023-09-19T00:49:58;98950.97;;;19.57;100.00
63405;BME280;49541;57.840;12.306;2023-09-19T00:54:58;98944.06;;;19.19;100.00
63405;BME280;49541;57.840;12.306;2023-09-19T01:00:00;98939.28;;;19.21;100.00
63405;BME280;49541;57.840;12.306;2023-09-19T01:05:05;98935.66;;;19.28;100.00
63405;BME280;49541;57.840;12.306;2023-09-19T01:10:06;98916.41;;;19.66;100.00
63405;BME280;49541;57.840;12.306;2023-09-19T01:15:11;98900.47;;;19.88;100.00
63405;BME280;49541;57.840;12.306;2023-09-19T01:20:17;98889.38;;;19.42;100.00
63405;BME280;49541;57.840;12.306;2023-09-19T01:30:40;98866.44;;;19.87;100.00
63405;BME280;49541;57.840;12.306;2023-09-19T01:35:43;98859.59;;;19.49;100.00
63405;BME280;49541;57.840;12.306;2023-09-19T01:40:43;98861.16;;;19.27;100.00
63405;BME280;49541;57.840;12.306;2023-09-19T01:51:00;98847.84;;;19.32;100.00
63405;BME280;49541;57.840;12.306;2023-09-19T01:56:02;98843.50;;;19.42;100.00
63405;BME280;49541;57.840;12.306;2023-09-19T02:01:06;98835.50;;;19.36;100.00
63405;BME280;49541;57.840;12.306;2023-09-19T02:06:06;98829.91;;;19.49;100.00
63405;BME280;49541;57.840;12.306;2023-09-19T02:11:11;98820.75;;;19.62;100.00
63405;BME280;49541;57.840;12.306;2023-09-19T02:16:13;98822.19;;;18.99;100.00
63405;BME280;49541;57.840;12.306;2023-09-19T02:21:17;98813.97;;;19.06;100.00
63405;BME280;49541;57.840;12.306;2023-09-19T02:26:17;98813.75;;;18.77;100.00
63405;BME280;49541;57.840;12.306;2023-09-19T02:31:18;98798.13;;;18.86;100.00
63405;BME280;49541;57.840;12.306;2023-09-19T02:36:19;98781.88;;;19.16;100.00
63405;BME280;49541;57.840;12.306;2023-09-19T02:41:19;98759.28;;;19.17;100.00
63405;BME280;49541;57.840;12.306;2023-09-19T02:46:19;98739.78;;;19.03;100.00
63405;BME280;49541;57.840;12.306;2023-09-19T02:51:20;98709.06;;;19.04;100.00
63405;BME280;49541;57.840;12.306;2023-09-19T02:56:20;98708.09;;;19.69;100.00
63405;BME280;49541;57.840;12.306;2023-09-19T03:01:20;98727.00;;;19.46;100.00
63405;BME280;49541;57.840;12.306;2023-09-19T03:06:21;98729.34;;;19.42;100.00
63405;BME280;49541;57.840;12.306;2023-09-19T03:11:21;98714.22;;;19.29;100.00
63405;BME280;49541;57.840;12.306;2023-09-19T03:16:23;98708.72;;;19.24;100.00
63405;BME280;49541;57.840;12.306;2023-09-19T03:21:23;98692.06;;;19.15;100.00
63405;BME280;49541;57.840;12.306;2023-09-19T03:26:23;98692.19;;;19.09;100.00
63405;BME280;49541;57.840;12.306;2023-09-19T03:31:26;98683.41;;;19.01;100.00
63405;BME280;49541;57.840;12.306;2023-09-19T03:36:28;98663.50;;;18.60;100.00
63405;BME280;49541;57.840;12.306;2023-09-19T03:41:28;98653.09;;;18.64;100.00
63405;BME280;49541;57.840;12.306;2023-09-19T03:46:28;98669.63;;;18.68;100.00
63405;BME280;49541;57.840;12.306;2023-09-19T03:51:30;98664.69;;;18.65;100.00
63405;BME280;49541;57.840;12.306;2023-09-19T03:56:30;98647.09;;;18.62;100.00
63405;BME280;49541;57.840;12.306;2023-09-19T04:01:31;98648.34;;;18.36;100.00
63405;BME280;49541;57.840;12.306;2023-09-19T04:06:34;98650.69;;;18.02;100.00
63405;BME280;49541;57.840;12.306;2023-09-19T04:11:35;98637.00;;;18.04;100.00
63405;BME280;49541;57.840;12.306;2023-09-19T04:16:35;98630.03;;;18.14;100.00
63405;BME280;49541;57.840;12.306;2023-09-19T04:21:35;98623.34;;;18.17;100.00
63405;BME280;49541;57.840;12.306;2023-09-19T04:26:35;98617.88;;;18.24;100.00
63405;BME280;49541;57.840;12.306;2023-09-19T04:31:36;98614.25;;;18.18;100.00
63405;BME280;49541;57.840;12.306;2023-09-19T04:36:37;98613.69;;;17.97;100.00
63405;BME280;49541;57.840;12.306;2023-09-19T04:41:38;98611.31;;;17.89;100.00
63405;BME280;49541;57.840;12.306;2023-09-19T04:46:40;98615.06;;;17.88;100.00
63405;BME280;49541;57.840;12.306;2023-09-19T04:51:41;98594.13;;;17.90;100.00
63405;BME280;49541;57.840;12.306;2023-09-19T04:56:42;98620.13;;;17.78;100.00
63405;BME280;49541;57.840;12.306;2023-09-19T05:01:42;98625.69;;;17.65;100.00
63405;BME280;49541;57.840;12.306;2023-09-19T05:06:42;98618.53;;;17.40;100.00
63405;BME280;49541;57.840;12.306;2023-09-19T05:11:43;98652.09;;;16.94;100.00
63405;BME280;49541;57.840;12.306;2023-09-19T05:16:43;98644.34;;;16.79;100.00
63405;BME280;49541;57.840;12.306;2023-09-19T05:21:44;98641.34;;;16.44;100.00
63405;BME280;49541;57.840;12.306;2023-09-19T05:26:44;98664.09;;;16.34;100.00
63405;BME280;49541;57.840;12.306;2023-09-19T05:31:45;98646.09;;;16.10;100.00
63405;BME280;49541;57.840;12.306;2023-09-19T05:36:45;98651.97;;;15.93;100.00
63405;BME280;49541;57.840;12.306;2023-09-19T05:41:49;98650.25;;;16.06;100.00
63405;BME280;49541;57.840;12.306;2023-09-19T05:46:49;98657.00;;;16.15;100.00
63405;BME280;49541;57.840;12.306;2023-09-19T05:51:49;98664.44;;;15.81;100.00
63405;BME280;49541;57.840;12.306;2023-09-19T05:56:50;98678.00;;;15.86;100.00
63405;BME280;49541;57.840;12.306;2023-09-19T06:01:53;98668.56;;;15.77;100.00
63405;BME280;49541;57.840;12.306;2023-09-19T06:06:53;98684.06;;;15.75;100.00
63405;BME280;49541;57.840;12.306;2023-09-19T06:11:53;98688.91;;;15.91;100.00
63405;BME280;49541;57.840;12.306;2023-09-19T06:16:55;98687.56;;;15.75;100.00
63405;BME280;49541;57.840;12.306;2023-09-19T06:21:55;98699.75;;;15.58;100.00
63405;BME280;49541;57.840;12.306;2023-09-19T06:26:55;98704.16;;;15.32;100.00
63405;BME280;49541;57.840;12.306;2023-09-19T06:31:56;98691.78;;;15.38;100.00
63405;BME280;49541;57.840;12.306;2023-09-19T06:36:56;98716.69;;;15.45;100.00
63405;BME280;49541;57.840;12.306;2023-09-19T06:41:56;98739.38;;;15.49;100.00
63405;BME280;49541;57.840;12.306;2023-09-19T06:46:56;98762.28;;;15.05;100.00
63405;BME280;49541;57.840;12.306;2023-09-19T06:51:56;98767.19;;;14.55;100.00
63405;BME280;49541;57.840;12.306;2023-09-19T06:56:57;98764.47;;;14.42;100.00
63405;BME280;49541;57.840;12.306;2023-09-19T07:01:58;98783.00;;;14.50;100.00
63405;BME280;49541;57.840;12.306;2023-09-19T07:06:59;98759.72;;;14.44;100.00
63405;BME280;49541;57.840;12.306;2023-09-19T07:11:59;98765.03;;;14.30;100.00
63405;BME280;49541;57.840;12.306;2023-09-19T07:17:00;98746.22;;;14.79;100.00
63405;BME280;49541;57.840;12.306;2023-09-19T07:22:01;98741.69;;;15.12;100.00
63405;BME280;49541;57.840;12.306;2023-09-19T07:27:02;98755.91;;;15.20;100.00
63405;BME280;49541;57.840;12.306;2023-09-19T07:32:02;98759.59;;;15.39;100.00
63405;BME280;49541;57.840;12.306;2023-09-19T07:37:03;98758.69;;;15.85;100.00
63405;BME280;49541;57.840;12.306;2023-09-19T07:42:03;98763.91;;;15.73;100.00
63405;BME280;49541;57.840;12.306;2023-09-19T07:47:04;98750.47;;;15.80;100.00
63405;BME280;49541;57.840;12.306;2023-09-19T07:52:04;98754.13;;;15.99;100.00
63405;BME280;49541;57.840;12.306;2023-09-19T07:57:04;98755.94;;;16.11;100.00
63405;BME280;49541;57.840;12.306;2023-09-19T08:02:04;98768.94;;;16.08;100.00
63405;BME280;49541;57.840;12.306;2023-09-19T08:07:04;98757.00;;;16.04;100.00
63405;BME280;49541;57.840;12.306;2023-09-19T08:12:06;98760.63;;;15.44;100.00
63405;BME280;49541;57.840;12.306;2023-09-19T08:17:08;98774.25;;;15.49;100.00
63405;BME280;49541;57.840;12.306;2023-09-19T08:22:08;98784.97;;;15.23;100.00
63405;BME280;49541;57.840;12.306;2023-09-19T08:27:10;98763.13;;;15.32;100.00
63405;BME280;49541;57.840;12.306;2023-09-19T08:32:12;98754.41;;;15.50;100.00
63405;BME280;49541;57.840;12.306;2023-09-19T08:37:12;98740.78;;;15.72;100.00
63405;BME280;49541;57.840;12.306;2023-09-19T08:42:12;98757.47;;;15.94;100.00
63405;BME280;49541;57.840;12.306;2023-09-19T08:47:14;98756.34;;;16.08;100.00
63405;BME280;49541;57.840;12.306;2023-09-19T08:52:28;98766.78;;;15.78;100.00
63405;BME280;49541;57.840;12.306;2023-09-19T08:57:33;98762.66;;;15.69;100.00
63405;BME280;49541;57.840;12.306;2023-09-19T09:02:37;98770.13;;;15.33;100.00
63405;BME280;49541;57.840;12.306;2023-09-19T09:07:40;98771.34;;;15.44;100.00
63405;BME280;49541;57.840;12.306;2023-09-19T09:12:41;98774.47;;;15.21;100.00
63405;BME280;49541;57.840;12.306;2023-09-19T09:17:43;98799.97;;;14.70;100.00
63405;BME280;49541;57.840;12.306;2023-09-19T09:22:52;98786.94;;;14.54;100.00
63405;BME280;49541;57.840;12.306;2023-09-19T09:27:59;98807.03;;;14.30;100.00
63405;BME280;49541;57.840;12.306;2023-09-19T09:33:12;98796.66;;;14.62;100.00
63405;BME280;49541;57.840;12.306;2023-09-19T09:38:13;98794.44;;;15.05;100.00
63405;BME280;49541;57.840;12.306;2023-09-19T09:43:24;98793.00;;;15.16;100.00
63405;BME280;49541;57.840;12.306;2023-09-19T09:48:25;98789.31;;;15.37;100.00
63405;BME280;49541;57.840;12.306;2023-09-19T09:53:31;98792.59;;;15.79;100.00
63405;BME280;49541;57.840;12.306;2023-09-19T09:58:32;98801.41;;;15.93;100.00
63405;BME280;49541;57.840;12.306;2023-09-19T10:03:34;98803.13;;;16.32;100.00
63405;BME280;49541;57.840;12.306;2023-09-19T10:08:39;98803.69;;;16.79;100.00
63405;BME280;49541;57.840;12.306;2023-09-19T10:13:40;98813.28;;;16.24;100.00
63405;BME280;49541;57.840;12.306;2023-09-19T10:18:42;98826.63;;;15.45;100.00
63405;BME280;49541;57.840;12.306;2023-09-19T10:23:43;98827.47;;;15.26;100.00
63405;BME280;49541;57.840;12.306;2023-09-19T10:28:46;98841.25;;;15.23;100.00
63405;BME280;49541;57.840;12.306;2023-09-19T10:33:50;98842.38;;;14.60;100.00
63405;BME280;49541;57.840;12.306;2023-09-19T10:38:50;98836.00;;;14.61;100.00
63405;BME280;49541;57.840;12.306;2023-09-19T10:43:54;98845.94;;;14.81;100.00
63405;BME280;49541;57.840;12.306;2023-09-19T10:48:58;98837.69;;;14.76;100.00
63405;BME280;49541;57.840;12.306;2023-09-19T10:54:06;98843.63;;;14.64;100.00
63405;BME280;49541;57.840;12.306;2023-09-19T10:59:12;98844.97;;;15.08;100.00
63405;BME280;49541;57.840;12.306;2023-09-19T11:04:28;98850.34;;;15.22;100.00
63405;BME280;49541;57.840;12.306;2023-09-19T11:09:47;98840.63;;;15.87;100.00
63405;BME280;49541;57.840;12.306;2023-09-19T11:14:47;98842.47;;;16.52;100.00
63405;BME280;49541;57.840;12.306;2023-09-19T11:30:31;98861.25;;;15.33;100.00
63405;BME280;49541;57.840;12.306;2023-09-19T11:41:11;98906.97;;;16.97;100.00
63405;BME280;49541;57.840;12.306;2023-09-19T11:46:12;98904.63;;;16.62;100.00
63405;BME280;49541;57.840;12.306;2023-09-19T11:56:20;98921.25;;;16.97;100.00
63405;BME280;49541;57.840;12.306;2023-09-19T12:01:31;98914.59;;;17.07;100.00
63405;BME280;49541;57.840;12.306;2023-09-19T12:06:32;98942.16;;;17.34;100.00
63405;BME280;49541;57.840;12.306;2023-09-19T12:11:32;98938.28;;;16.78;100.00
63405;BME280;49541;57.840;12.306;2023-09-19T12:16:33;98941.13;;;15.91;100.00
63405;BME280;49541;57.840;12.306;2023-09-19T12:21:33;98946.59;;;16.63;100.00
63405;BME280;49541;57.840;12.306;2023-09-19T12:26:39;98937.41;;;17.29;100.00
63405;BME280;49541;57.840;12.306;2023-09-19T12:42:27;98948.38;;;17.28;100.00
63405;BME280;49541;57.840;12.306;2023-09-19T12:47:32;98950.34;;;16.49;100.00
63405;BME280;49541;57.840;12.306;2023-09-19T12:52:37;98934.31;;;16.09;100.00
63405;BME280;49541;57.840;12.306;2023-09-19T12:57:38;98942.97;;;16.31;100.00
63405;BME280;49541;57.840;12.306;2023-09-19T13:03:08;98924.00;;;16.06;100.00
63405;BME280;49541;57.840;12.306;2023-09-19T13:07:59;98929.38;;;16.06;100.00
63405;BME280;49541;57.840;12.306;2023-09-19T13:13:24;98921.91;;;15.68;100.00
63405;BME280;49541;57.840;12.306;2023-09-19T13:18:28;98921.50;;;16.04;100.00
63405;BME280;49541;57.840;12.306;2023-09-19T13:23:29;98933.94;;;15.99;100.00
63405;BME280;49541;57.840;12.306;2023-09-19T13:28:31;98923.78;;;15.61;100.00
63405;BME280;49541;57.840;12.306;2023-09-19T13:33:31;98919.28;;;15.88;100.00
63405;BME280;49541;57.840;12.306;2023-09-19T13:38:31;98919.03;;;15.63;100.00
63405;BME280;49541;57.840;12.306;2023-09-19T13:43:32;98930.19;;;15.60;100.00
63405;BME280;49541;57.840;12.306;2023-09-19T13:48:32;98925.47;;;15.75;100.00
63405;BME280;49541;57.840;12.306;2023-09-19T13:53:35;98930.63;;;16.03;100.00
63405;BME280;49541;57.840;12.306;2023-09-19T13:58:35;98925.44;;;16.02;100.00
63405;BME280;49541;57.840;12.306;2023-09-19T14:03:35;98918.63;;;16.12;100.00
63405;BME280;49541;57.840;12.306;2023-09-19T14:08:35;98928.56;;;15.72;100.00
63405;BME280;49541;57.840;12.306;2023-09-19T14:13:35;98916.34;;;15.63;100.00
63405;BME280;49541;57.840;12.306;2023-09-19T14:18:36;98912.44;;;15.59;100.00
63405;BME280;49541;57.840;12.306;2023-09-19T14:23:36;98911.19;;;15.54;100.00
63405;BME280;49541;57.840;12.306;2023-09-19T14:28:37;98920.28;;;15.53;100.00
63405;BME280;49541;57.840;12.306;2023-09-19T14:33:38;98893.03;;;15.56;100.00
63405;BME280;49541;57.840;12.306;2023-09-19T14:38:38;98896.38;;;15.72;100.00
63405;BME280;49541;57.840;12.306;2023-09-19T14:43:39;98908.97;;;15.71;100.00
63405;BME280;49541;57.840;12.306;2023-09-19T14:48:39;98900.88;;;15.38;100.00
63405;BME280;49541;57.840;12.306;2023-09-19T14:53:40;98897.34;;;15.18;100.00
63405;BME280;49541;57.840;12.306;2023-09-19T14:58:41;98899.34;;;14.89;100.00
63405;BME280;49541;57.840;12.306;2023-09-19T15:03:42;98888.38;;;14.84;100.00
63405;BME280;49541;57.840;12.306;2023-09-19T15:08:43;98880.34;;;14.84;100.00
63405;BME280;49541;57.840;12.306;2023-09-19T15:13:50;98902.22;;;14.87;100.00
63405;BME280;49541;57.840;12.306;2023-09-19T15:18:51;98888.78;;;14.74;100.00
63405;BME280;49541;57.840;12.306;2023-09-19T15:23:52;98884.22;;;14.68;100.00
63405;BME280;49541;57.840;12.306;2023-09-19T15:28:52;98879.53;;;14.35;100.00
63405;BME280;49541;57.840;12.306;2023-09-19T15:33:54;98881.31;;;14.21;100.00
63405;BME280;49541;57.840;12.306;2023-09-19T15:39:04;98876.03;;;14.00;100.00
63405;BME280;49541;57.840;12.306;2023-09-19T15:44:18;98872.75;;;14.04;100.00
63405;BME280;49541;57.840;12.306;2023-09-19T15:49:19;98874.41;;;13.99;100.00
63405;BME280;49541;57.840;12.306;2023-09-19T15:54:19;98863.25;;;13.95;100.00
63405;BME280;49541;57.840;12.306;2023-09-19T15:59:19;98857.38;;;14.13;100.00
63405;BME280;49541;57.840;12.306;2023-09-19T16:04:19;98847.25;;;14.02;100.00
63405;BME280;49541;57.840;12.306;2023-09-19T16:09:19;98832.44;;;14.06;100.00
63405;BME280;49541;57.840;12.306;2023-09-19T16:14:20;98819.97;;;14.20;100.00
63405;BME280;49541;57.840;12.306;2023-09-19T16:19:20;98807.50;;;14.47;100.00
63405;BME280;49541;57.840;12.306;2023-09-19T16:24:20;98798.00;;;14.38;100.00
63405;BME280;49541;57.840;12.306;2023-09-19T16:29:20;98779.59;;;14.69;100.00
63405;BME280;49541;57.840;12.306;2023-09-19T16:34:24;98759.59;;;14.59;100.00
63405;BME280;49541;57.840;12.306;2023-09-19T16:39:25;98745.31;;;14.45;100.00
63405;BME280;49541;57.840;12.306;2023-09-19T16:44:25;98725.22;;;14.95;100.00
63405;BME280;49541;57.840;12.306;2023-09-19T16:49:26;98720.25;;;14.79;100.00
63405;BME280;49541;57.840;12.306;2023-09-19T16:54:26;98710.78;;;14.63;100.00
63405;BME280;49541;57.840;12.306;2023-09-19T16:59:26;98707.63;;;14.40;100.00
63405;BME280;49541;57.840;12.306;2023-09-19T17:04:26;98705.97;;;14.45;100.00
63405;BME280;49541;57.840;12.306;2023-09-19T17:09:29;98681.00;;;14.18;100.00
63405;BME280;49541;57.840;12.306;2023-09-19T17:14:29;98666.19;;;14.16;100.00
63405;BME280;49541;57.840;12.306;2023-09-19T17:19:29;98634.31;;;14.34;100.00
63405;BME280;49541;57.840;12.306;2023-09-19T17:24:30;98614.34;;;14.50;100.00
63405;BME280;49541;57.840;12.306;2023-09-19T17:29:30;98601.63;;;14.59;100.00
63405;BME280;49541;57.840;12.306;2023-09-19T17:34:30;98577.50;;;14.52;100.00
63405;BME280;49541;57.840;12.306;2023-09-19T17:39:30;98557.09;;;14.31;100.00
63405;BME280;49541;57.840;12.306;2023-09-19T17:44:31;98521.28;;;14.59;100.00
63405;BME280;49541;57.840;12.306;2023-09-19T17:49:34;98515.44;;;14.95;100.00
63405;BME280;49541;57.840;12.306;2023-09-19T17:54:34;98490.72;;;14.93;100.00
63405;BME280;49541;57.840;12.306;2023-09-19T17:59:35;98479.69;;;14.29;100.00
63405;BME280;49541;57.840;12.306;2023-09-19T18:04:35;98473.75;;;14.21;100.00
63405;BME280;49541;57.840;12.306;2023-09-19T18:09:35;98443.69;;;14.25;100.00
63405;BME280;49541;57.840;12.306;2023-09-19T18:14:36;98407.91;;;14.20;100.00
63405;BME280;49541;57.840;12.306;2023-09-19T18:19:37;98367.22;;;14.49;100.00
63405;BME280;49541;57.840;12.306;2023-09-19T18:24:38;98358.44;;;14.87;100.00
63405;BME280;49541;57.840;12.306;2023-09-19T18:29:38;98341.06;;;14.97;100.00
63405;BME280;49541;57.840;12.306;2023-09-19T18:34:43;98316.06;;;15.09;100.00
63405;BME280;49541;57.840;12.306;2023-09-19T18:39:43;98322.69;;;14.68;100.00
63405;BME280;49541;57.840;12.306;2023-09-19T18:44:43;98330.06;;;14.73;100.00
63405;BME280;49541;57.840;12.306;2023-09-19T18:49:45;98357.78;;;14.92;100.00
63405;BME280;49541;57.840;12.306;2023-09-19T18:54:45;98298.84;;;14.92;100.00
63405;BME280;49541;57.840;12.306;2023-09-19T18:59:45;98322.66;;;15.07;100.00
63405;BME280;49541;57.840;12.306;2023-09-19T19:04:45;98347.19;;;15.10;100.00
63405;BME280;49541;57.840;12.306;2023-09-19T19:09:46;98354.25;;;15.30;100.00
63405;BME280;49541;57.840;12.306;2023-09-19T19:14:46;98345.25;;;15.49;100.00
63405;BME280;49541;57.840;12.306;2023-09-19T19:19:46;98342.22;;;15.64;100.00
63405;BME280;49541;57.840;12.306;2023-09-19T19:24:46;98335.44;;;15.87;100.00
63405;BME280;49541;57.840;12.306;2023-09-19T19:29:47;98377.41;;;16.00;100.00
63405;BME280;49541;57.840;12.306;2023-09-19T19:34:48;98344.31;;;16.06;100.00
63405;BME280;49541;57.840;12.306;2023-09-19T19:39:48;98367.31;;;16.20;100.00
63405;BME280;49541;57.840;12.306;2023-09-19T19:44:48;98361.47;;;16.23;100.00
63405;BME280;49541;57.840;12.306;2023-09-19T19:49:53;98385.84;;;16.22;100.00
63405;BME280;49541;57.840;12.306;2023-09-19T19:54:54;98411.44;;;16.24;100.00
63405;BME280;49541;57.840;12.306;2023-09-19T19:59:54;98435.44;;;16.19;100.00
63405;BME280;49541;57.840;12.306;2023-09-19T20:04:55;98449.09;;;16.17;100.00
63405;BME280;49541;57.840;12.306;2023-09-19T20:09:56;98428.75;;;16.28;100.00
63405;BME280;49541;57.840;12.306;2023-09-19T20:14:56;98421.06;;;16.32;100.00
63405;BME280;49541;57.840;12.306;2023-09-19T20:19:57;98460.59;;;16.25;100.00
63405;BME280;49541;57.840;12.306;2023-09-19T20:24:59;98449.50;;;16.40;100.00
63405;BME280;49541;57.840;12.306;2023-09-19T20:29:59;98444.78;;;16.35;100.00
63405;BME280;49541;57.840;12.306;2023-09-19T20:35:01;98444.41;;;16.31;100.00
63405;BME280;49541;57.840;12.306;2023-09-19T20:40:05;98474.97;;;16.30;100.00
63405;BME280;49541;57.840;12.306;2023-09-19T20:45:11;98485.13;;;16.28;100.00
63405;BME280;49541;57.840;12.306;2023-09-19T20:50:12;98482.38;;;16.35;100.00
63405;BME280;49541;57.840;12.306;2023-09-19T20:55:13;98493.00;;;16.23;100.00
63405;BME280;49541;57.840;12.306;2023-09-19T21:00:13;98502.78;;;16.17;100.00
63405;BME280;49541;57.840;12.306;2023-09-19T21:05:13;98521.78;;;16.16;100.00
63405;BME280;49541;57.840;12.306;2023-09-19T21:10:14;98569.47;;;16.14;100.00
63405;BME280;49541;57.840;12.306;2023-09-19T21:15:15;98554.47;;;16.06;100.00
63405;BME280;49541;57.840;12.306;2023-09-19T21:20:17;98585.50;;;15.95;100.00
63405;BME280;49541;57.840;12.306;2023-09-19T21:25:22;98607.50;;;15.66;100.00
63405;BME280;49541;57.840;12.306;2023-09-19T21:30:22;98617.94;;;15.29;100.00
63405;BME280;49541;57.840;12.306;2023-09-19T21:35:23;98636.75;;;15.15;100.00
63405;BME280;49541;57.840;12.306;2023-09-19T21:40:23;98639.63;;;15.14;100.00
63405;BME280;49541;57.840;12.306;2023-09-19T21:45:23;98649.59;;;14.93;100.00
63405;BME280;49541;57.840;12.306;2023-09-19T21:50:24;98674.50;;;14.94;100.00
63405;BME280;49541;57.840;12.306;2023-09-19T21:55:28;98659.47;;;14.93;100.00
63405;BME280;49541;57.840;12.306;2023-09-19T22:00:28;98681.13;;;14.85;100.00
63405;BME280;49541;57.840;12.306;2023-09-19T22:05:38;98686.06;;;14.81;100.00
63405;BME280;49541;57.840;12.306;2023-09-19T22:15:41;98714.06;;;14.79;100.00
63405;BME280;49541;57.840;12.306;2023-09-19T22:20:45;98725.00;;;14.70;100.00
63405;BME280;49541;57.840;12.306;2023-09-19T22:25:59;98732.81;;;14.65;100.00
63405;BME280;49541;57.840;12.306;2023-09-19T22:31:03;98730.75;;;14.67;100.00
63405;BME280;49541;57.840;12.306;2023-09-19T22:36:11;98719.63;;;14.70;100.00
63405;BME280;49541;57.840;12.306;2023-09-19T22:41:13;98727.47;;;14.65;100.00
63405;BME280;49541;57.840;12.306;2023-09-19T22:46:16;98722.09;;;14.59;100.00
63405;BME280;49541;57.840;12.306;2023-09-19T22:51:18;98726.03;;;14.76;100.00
63405;BME280;49541;57.840;12.306;2023-09-19T22:56:36;98740.03;;;14.85;100.00
63405;BME280;49541;57.840;12.306;2023-09-19T23:01:36;98758.81;;;14.91;100.00
63405;BME280;49541;57.840;12.306;2023-09-19T23:06:44;98758.38;;;14.81;100.00
63405;BME280;49541;57.840;12.306;2023-09-19T23:11:54;98792.75;;;14.78;100.00
63405;BME280;49541;57.840;12.306;2023-09-19T23:16:55;98787.44;;;14.91;100.00
63405;BME280;49541;57.840;12.306;2023-09-19T23:21:57;98784.16;;;14.89;100.00
63405;BME280;49541;57.840;12.306;2023-09-19T23:27:04;98803.69;;;14.76;100.00
63405;BME280;49541;57.840;12.306;2023-09-19T23:32:06;98796.69;;;14.82;100.00
63405;BME280;49541;57.840;12.306;2023-09-19T23:37:07;98800.22;;;15.02;100.00
63405;BME280;49541;57.840;12.306;2023-09-19T23:42:08;98806.22;;;15.18;100.00
63405;BME280;49541;57.840;12.306;2023-09-19T23:47:10;98804.97;;;15.00;100.00
63405;BME280;49541;57.840;12.306;2023-09-19T23:52:11;98785.81;;;15.17;100.00
63405;BME280;49541;57.840;12.306;2023-09-19T23:57:11;98786.84;;;15.22;100.00
